sensor_id;sensor_type;location;lat;lon;timestamp;P1;durP1;ratioP1;P2;durP2;ratioP2
8312;SDS011;4194;43.408;24.626;2022-11-15T00:01:45;93.23;;;42.27;;
8312;SDS011;4194;43.408;24.626;2022-11-15T00:04:11;92.60;;;40.67;;
8312;SDS011;4194;43.408;24.626;2022-11-15T00:06:37;99.00;;;42.27;;
8312;SDS011;4194;43.408;24.626;2022-11-15T00:09:02;99.80;;;41.30;;
8312;SDS011;4194;43.408;24.626;2022-11-15T00:11:28;92.90;;;40.10;;
8312;SDS011;4194;43.408;24.626;2022-11-15T00:13:55;91.33;;;40.80;;
8312;SDS011;4194;43.408;24.626;2022-11-15T00:16:22;93.40;;;41.23;;
8312;SDS011;4194;43.408;24.626;2022-11-15T00:18:48;96.27;;;41.93;;
8312;SDS011;4194;43.408;24.626;2022-11-15T00:21:14;88.60;;;39.93;;
8312;SDS011;4194;43.408;24.626;2022-11-15T00:23:41;99.97;;;41.07;;
8312;SDS011;4194;43.408;24.626;2022-11-15T00:26:07;89.77;;;39.60;;
8312;SDS011;4194;43.408;24.626;2022-11-15T00:28:39;92.90;;;39.73;;
8312;SDS011;4194;43.408;24.626;2022-11-15T00:31:07;84.70;;;40.53;;
8312;SDS011;4194;43.408;24.626;2022-11-15T00:33:36;86.03;;;38.93;;
8312;SDS011;4194;43.408;24.626;2022-11-15T00:36:05;99.53;;;41.07;;
8312;SDS011;4194;43.408;24.626;2022-11-15T00:38:37;98.23;;;39.83;;
8312;SDS011;4194;43.408;24.626;2022-11-15T00:41:04;111.87;;;53.20;;
8312;SDS011;4194;43.408;24.626;2022-11-15T00:43:32;116.93;;;53.53;;
8312;SDS011;4194;43.408;24.626;2022-11-15T00:45:58;121.20;;;51.87;;
8312;SDS011;4194;43.408;24.626;2022-11-15T00:48:24;93.53;;;43.17;;
8312;SDS011;4194;43.408;24.626;2022-11-15T00:50:50;98.30;;;42.57;;
8312;SDS011;4194;43.408;24.626;2022-11-15T00:53:16;97.60;;;40.03;;
8312;SDS011;4194;43.408;24.626;2022-11-15T00:55:42;98.73;;;40.53;;
8312;SDS011;4194;43.408;24.626;2022-11-15T00:58:08;87.43;;;38.20;;
8312;SDS011;4194;43.408;24.626;2022-11-15T01:00:34;95.67;;;42.67;;
8312;SDS011;4194;43.408;24.626;2022-11-15T01:03:00;93.13;;;42.13;;
8312;SDS011;4194;43.408;24.626;2022-11-15T01:05:26;94.97;;;41.37;;
8312;SDS011;4194;43.408;24.626;2022-11-15T01:07:52;87.07;;;38.87;;
8312;SDS011;4194;43.408;24.626;2022-11-15T01:10:19;81.10;;;38.77;;
8312;SDS011;4194;43.408;24.626;2022-11-15T01:12:45;85.13;;;38.03;;
8312;SDS011;4194;43.408;24.626;2022-11-15T01:15:11;79.13;;;37.97;;
8312;SDS011;4194;43.408;24.626;2022-11-15T01:17:37;86.27;;;39.03;;
8312;SDS011;4194;43.408;24.626;2022-11-15T01:20:02;78.73;;;37.17;;
8312;SDS011;4194;43.408;24.626;2022-11-15T01:22:29;70.83;;;34.97;;
8312;SDS011;4194;43.408;24.626;2022-11-15T01:24:54;84.53;;;37.30;;
8312;SDS011;4194;43.408;24.626;2022-11-15T01:27:20;78.77;;;35.13;;
8312;SDS011;4194;43.408;24.626;2022-11-15T01:29:46;72.50;;;35.07;;
8312;SDS011;4194;43.408;24.626;2022-11-15T01:32:12;66.93;;;34.50;;
8312;SDS011;4194;43.408;24.626;2022-11-15T01:34:38;69.17;;;34.20;;
8312;SDS011;4194;43.408;24.626;2022-11-15T01:37:03;76.87;;;35.07;;
8312;SDS011;4194;43.408;24.626;2022-11-15T01:39:29;73.07;;;34.43;;
8312;SDS011;4194;43.408;24.626;2022-11-15T01:41:55;66.50;;;33.77;;
8312;SDS011;4194;43.408;24.626;2022-11-15T01:49:44;74.27;;;34.43;;
8312;SDS011;4194;43.408;24.626;2022-11-15T01:52:17;73.57;;;35.73;;
8312;SDS011;4194;43.408;24.626;2022-11-15T01:54:47;74.03;;;34.87;;
8312;SDS011;4194;43.408;24.626;2022-11-15T01:57:15;66.80;;;33.23;;
8312;SDS011;4194;43.408;24.626;2022-11-15T01:59:42;73.70;;;35.77;;
8312;SDS011;4194;43.408;24.626;2022-11-15T02:02:09;63.87;;;33.63;;
8312;SDS011;4194;43.408;24.626;2022-11-15T02:04:45;73.87;;;33.43;;
8312;SDS011;4194;43.408;24.626;2022-11-15T02:07:13;72.13;;;35.60;;
8312;SDS011;4194;43.408;24.626;2022-11-15T02:09:41;69.07;;;33.37;;
8312;SDS011;4194;43.408;24.626;2022-11-15T02:12:08;64.17;;;33.03;;
8312;SDS011;4194;43.408;24.626;2022-11-15T02:14:36;72.13;;;34.50;;
8312;SDS011;4194;43.408;24.626;2022-11-15T02:28:35;77.03;;;35.17;;
8312;SDS011;4194;43.408;24.626;2022-11-15T02:36:44;73.00;;;36.17;;
8312;SDS011;4194;43.408;24.626;2022-11-15T02:42:08;70.40;;;36.27;;
8312;SDS011;4194;43.408;24.626;2022-11-15T02:45:05;66.47;;;34.47;;
8312;SDS011;4194;43.408;24.626;2022-11-15T02:47:37;69.73;;;35.30;;
8312;SDS011;4194;43.408;24.626;2022-11-15T02:50:10;79.30;;;40.13;;
8312;SDS011;4194;43.408;24.626;2022-11-15T02:52:38;89.00;;;46.97;;
8312;SDS011;4194;43.408;24.626;2022-11-15T02:55:04;73.07;;;42.67;;
8312;SDS011;4194;43.408;24.626;2022-11-15T03:00:11;68.57;;;38.33;;
8312;SDS011;4194;43.408;24.626;2022-11-15T03:11:15;66.67;;;34.70;;
8312;SDS011;4194;43.408;24.626;2022-11-15T03:13:50;65.10;;;35.60;;
8312;SDS011;4194;43.408;24.626;2022-11-15T03:19:04;71.53;;;37.57;;
8312;SDS011;4194;43.408;24.626;2022-11-15T03:21:35;65.03;;;35.27;;
8312;SDS011;4194;43.408;24.626;2022-11-15T03:24:03;72.13;;;37.37;;
8312;SDS011;4194;43.408;24.626;2022-11-15T03:26:32;69.77;;;41.60;;
8312;SDS011;4194;43.408;24.626;2022-11-15T03:29:04;79.10;;;44.43;;
8312;SDS011;4194;43.408;24.626;2022-11-15T03:31:36;71.83;;;43.43;;
8312;SDS011;4194;43.408;24.626;2022-11-15T03:37:00;62.00;;;39.17;;
8312;SDS011;4194;43.408;24.626;2022-11-15T03:39:26;62.70;;;36.50;;
8312;SDS011;4194;43.408;24.626;2022-11-15T03:44:55;72.07;;;36.37;;
8312;SDS011;4194;43.408;24.626;2022-11-15T03:50:17;68.43;;;38.83;;
8312;SDS011;4194;43.408;24.626;2022-11-15T03:52:45;71.63;;;36.07;;
8312;SDS011;4194;43.408;24.626;2022-11-15T03:55:13;66.60;;;33.87;;
8312;SDS011;4194;43.408;24.626;2022-11-15T03:57:41;67.47;;;33.73;;
8312;SDS011;4194;43.408;24.626;2022-11-15T04:00:07;68.13;;;36.43;;
8312;SDS011;4194;43.408;24.626;2022-11-15T04:02:33;68.40;;;34.93;;
8312;SDS011;4194;43.408;24.626;2022-11-15T04:04:59;65.60;;;32.30;;
8312;SDS011;4194;43.408;24.626;2022-11-15T04:07:25;59.47;;;32.87;;
8312;SDS011;4194;43.408;24.626;2022-11-15T04:09:50;61.90;;;33.27;;
8312;SDS011;4194;43.408;24.626;2022-11-15T04:12:29;57.17;;;31.70;;
8312;SDS011;4194;43.408;24.626;2022-11-15T04:15:00;52.77;;;31.70;;
8312;SDS011;4194;43.408;24.626;2022-11-15T04:17:37;61.83;;;31.23;;
8312;SDS011;4194;43.408;24.626;2022-11-15T04:20:10;55.07;;;31.13;;
8312;SDS011;4194;43.408;24.626;2022-11-15T04:22:56;51.07;;;28.87;;
8312;SDS011;4194;43.408;24.626;2022-11-15T04:25:41;50.23;;;29.17;;
8312;SDS011;4194;43.408;24.626;2022-11-15T04:28:07;55.70;;;30.17;;
8312;SDS011;4194;43.408;24.626;2022-11-15T04:30:33;55.87;;;28.43;;
8312;SDS011;4194;43.408;24.626;2022-11-15T04:32:59;51.00;;;27.57;;
8312;SDS011;4194;43.408;24.626;2022-11-15T04:35:24;50.83;;;27.50;;
8312;SDS011;4194;43.408;24.626;2022-11-15T04:37:50;51.03;;;27.20;;
8312;SDS011;4194;43.408;24.626;2022-11-15T04:40:16;50.40;;;26.97;;
8312;SDS011;4194;43.408;24.626;2022-11-15T04:42:42;53.73;;;28.57;;
8312;SDS011;4194;43.408;24.626;2022-11-15T04:45:08;49.83;;;26.97;;
8312;SDS011;4194;43.408;24.626;2022-11-15T04:47:34;46.50;;;27.10;;
8312;SDS011;4194;43.408;24.626;2022-11-15T04:50:00;50.30;;;27.13;;
8312;SDS011;4194;43.408;24.626;2022-11-15T04:52:26;50.23;;;25.90;;
8312;SDS011;4194;43.408;24.626;2022-11-15T04:54:51;44.07;;;25.70;;
8312;SDS011;4194;43.408;24.626;2022-11-15T04:57:17;45.60;;;27.47;;
8312;SDS011;4194;43.408;24.626;2022-11-15T04:59:43;47.97;;;26.60;;
8312;SDS011;4194;43.408;24.626;2022-11-15T05:02:09;51.50;;;27.00;;
8312;SDS011;4194;43.408;24.626;2022-11-15T05:04:34;42.27;;;24.83;;
8312;SDS011;4194;43.408;24.626;2022-11-15T05:07:00;53.50;;;28.30;;
8312;SDS011;4194;43.408;24.626;2022-11-15T05:09:26;47.20;;;26.43;;
8312;SDS011;4194;43.408;24.626;2022-11-15T05:11:51;49.77;;;28.13;;
8312;SDS011;4194;43.408;24.626;2022-11-15T05:14:17;48.03;;;27.43;;
8312;SDS011;4194;43.408;24.626;2022-11-15T05:16:43;48.43;;;26.97;;
8312;SDS011;4194;43.408;24.626;2022-11-15T05:19:09;47.10;;;27.03;;
8312;SDS011;4194;43.408;24.626;2022-11-15T05:21:35;48.93;;;28.43;;
8312;SDS011;4194;43.408;24.626;2022-11-15T05:24:01;57.37;;;31.73;;
8312;SDS011;4194;43.408;24.626;2022-11-15T05:26:27;74.00;;;40.97;;
8312;SDS011;4194;43.408;24.626;2022-11-15T05:28:54;69.90;;;42.77;;
8312;SDS011;4194;43.408;24.626;2022-11-15T05:31:21;64.10;;;34.23;;
8312;SDS011;4194;43.408;24.626;2022-11-15T05:33:48;47.10;;;29.73;;
8312;SDS011;4194;43.408;24.626;2022-11-15T05:38:48;65.47;;;31.97;;
8312;SDS011;4194;43.408;24.626;2022-11-15T05:41:15;56.00;;;30.27;;
8312;SDS011;4194;43.408;24.626;2022-11-15T05:43:44;53.60;;;29.43;;
8312;SDS011;4194;43.408;24.626;2022-11-15T05:46:11;50.03;;;29.47;;
8312;SDS011;4194;43.408;24.626;2022-11-15T05:48:39;49.67;;;30.33;;
8312;SDS011;4194;43.408;24.626;2022-11-15T05:51:07;53.13;;;29.93;;
8312;SDS011;4194;43.408;24.626;2022-11-15T05:53:33;52.70;;;30.13;;
8312;SDS011;4194;43.408;24.626;2022-11-15T05:56:26;51.17;;;29.73;;
8312;SDS011;4194;43.408;24.626;2022-11-15T05:58:52;48.53;;;29.57;;
8312;SDS011;4194;43.408;24.626;2022-11-15T06:01:19;50.37;;;29.47;;
8312;SDS011;4194;43.408;24.626;2022-11-15T06:03:44;51.13;;;28.87;;
8312;SDS011;4194;43.408;24.626;2022-11-15T06:06:10;51.20;;;29.10;;
8312;SDS011;4194;43.408;24.626;2022-11-15T06:08:36;48.77;;;28.23;;
8312;SDS011;4194;43.408;24.626;2022-11-15T06:11:05;48.70;;;27.80;;
8312;SDS011;4194;43.408;24.626;2022-11-15T06:13:32;48.90;;;28.63;;
8312;SDS011;4194;43.408;24.626;2022-11-15T06:15:58;51.73;;;28.40;;
8312;SDS011;4194;43.408;24.626;2022-11-15T06:18:24;52.87;;;28.53;;
8312;SDS011;4194;43.408;24.626;2022-11-15T06:20:50;46.73;;;27.37;;
8312;SDS011;4194;43.408;24.626;2022-11-15T06:23:16;48.83;;;28.17;;
8312;SDS011;4194;43.408;24.626;2022-11-15T06:25:42;47.63;;;28.60;;
8312;SDS011;4194;43.408;24.626;2022-11-15T06:28:07;48.17;;;27.93;;
8312;SDS011;4194;43.408;24.626;2022-11-15T06:30:33;48.63;;;28.73;;
8312;SDS011;4194;43.408;24.626;2022-11-15T06:33:00;48.93;;;28.53;;
8312;SDS011;4194;43.408;24.626;2022-11-15T06:35:30;43.43;;;25.87;;
8312;SDS011;4194;43.408;24.626;2022-11-15T06:38:02;42.77;;;25.23;;
8312;SDS011;4194;43.408;24.626;2022-11-15T06:40:29;47.47;;;27.73;;
8312;SDS011;4194;43.408;24.626;2022-11-15T06:43:00;47.77;;;28.17;;
8312;SDS011;4194;43.408;24.626;2022-11-15T06:45:26;46.47;;;28.13;;
8312;SDS011;4194;43.408;24.626;2022-11-15T06:47:52;55.30;;;29.80;;
8312;SDS011;4194;43.408;24.626;2022-11-15T06:50:18;44.57;;;26.93;;
8312;SDS011;4194;43.408;24.626;2022-11-15T06:52:44;41.73;;;26.07;;
8312;SDS011;4194;43.408;24.626;2022-11-15T06:55:10;48.43;;;27.00;;
8312;SDS011;4194;43.408;24.626;2022-11-15T06:57:35;46.13;;;26.80;;
8312;SDS011;4194;43.408;24.626;2022-11-15T07:00:03;42.53;;;26.50;;
8312;SDS011;4194;43.408;24.626;2022-11-15T07:02:29;46.17;;;25.97;;
8312;SDS011;4194;43.408;24.626;2022-11-15T07:04:56;44.97;;;25.90;;
8312;SDS011;4194;43.408;24.626;2022-11-15T07:07:21;47.33;;;26.83;;
8312;SDS011;4194;43.408;24.626;2022-11-15T07:09:47;44.03;;;25.70;;
8312;SDS011;4194;43.408;24.626;2022-11-15T07:12:13;44.60;;;26.57;;
8312;SDS011;4194;43.408;24.626;2022-11-15T07:14:39;41.67;;;25.33;;
8312;SDS011;4194;43.408;24.626;2022-11-15T07:17:04;40.63;;;24.90;;
8312;SDS011;4194;43.408;24.626;2022-11-15T07:19:30;38.53;;;24.00;;
8312;SDS011;4194;43.408;24.626;2022-11-15T07:21:56;40.27;;;24.37;;
8312;SDS011;4194;43.408;24.626;2022-11-15T07:24:22;43.37;;;25.33;;
8312;SDS011;4194;43.408;24.626;2022-11-15T07:26:48;41.33;;;25.90;;
8312;SDS011;4194;43.408;24.626;2022-11-15T07:29:13;45.73;;;27.00;;
8312;SDS011;4194;43.408;24.626;2022-11-15T07:31:39;45.10;;;26.67;;
8312;SDS011;4194;43.408;24.626;2022-11-15T07:34:05;45.90;;;27.90;;
8312;SDS011;4194;43.408;24.626;2022-11-15T07:36:30;44.40;;;25.93;;
8312;SDS011;4194;43.408;24.626;2022-11-15T07:38:56;37.87;;;24.43;;
8312;SDS011;4194;43.408;24.626;2022-11-15T07:41:22;42.60;;;25.60;;
8312;SDS011;4194;43.408;24.626;2022-11-15T07:43:50;39.93;;;23.53;;
8312;SDS011;4194;43.408;24.626;2022-11-15T07:46:16;39.03;;;23.50;;
8312;SDS011;4194;43.408;24.626;2022-11-15T07:48:42;39.43;;;22.53;;
8312;SDS011;4194;43.408;24.626;2022-11-15T07:51:10;38.13;;;22.97;;
8312;SDS011;4194;43.408;24.626;2022-11-15T07:53:40;36.20;;;21.90;;
8312;SDS011;4194;43.408;24.626;2022-11-15T07:56:07;36.50;;;21.53;;
8312;SDS011;4194;43.408;24.626;2022-11-15T07:58:33;32.17;;;20.80;;
8312;SDS011;4194;43.408;24.626;2022-11-15T08:01:01;32.43;;;21.83;;
8312;SDS011;4194;43.408;24.626;2022-11-15T08:03:31;33.37;;;22.03;;
8312;SDS011;4194;43.408;24.626;2022-11-15T08:05:57;29.83;;;20.63;;
8312;SDS011;4194;43.408;24.626;2022-11-15T08:08:23;26.57;;;17.20;;
8312;SDS011;4194;43.408;24.626;2022-11-15T08:10:49;28.13;;;18.60;;
8312;SDS011;4194;43.408;24.626;2022-11-15T08:13:14;24.50;;;16.57;;
8312;SDS011;4194;43.408;24.626;2022-11-15T08:15:40;27.07;;;16.57;;
8312;SDS011;4194;43.408;24.626;2022-11-15T08:18:09;27.47;;;18.27;;
8312;SDS011;4194;43.408;24.626;2022-11-15T08:20:37;29.73;;;18.03;;
8312;SDS011;4194;43.408;24.626;2022-11-15T08:23:03;27.53;;;17.97;;
8312;SDS011;4194;43.408;24.626;2022-11-15T08:25:30;31.07;;;19.17;;
8312;SDS011;4194;43.408;24.626;2022-11-15T08:27:58;28.17;;;17.57;;
8312;SDS011;4194;43.408;24.626;2022-11-15T08:30:25;31.67;;;19.53;;
8312;SDS011;4194;43.408;24.626;2022-11-15T08:32:52;28.73;;;18.80;;
8312;SDS011;4194;43.408;24.626;2022-11-15T08:35:19;29.40;;;19.70;;
8312;SDS011;4194;43.408;24.626;2022-11-15T08:37:45;29.30;;;19.33;;
8312;SDS011;4194;43.408;24.626;2022-11-15T08:40:11;26.77;;;17.60;;
8312;SDS011;4194;43.408;24.626;2022-11-15T08:42:38;27.17;;;17.73;;
8312;SDS011;4194;43.408;24.626;2022-11-15T08:45:05;26.40;;;17.77;;
8312;SDS011;4194;43.408;24.626;2022-11-15T08:47:31;27.57;;;17.10;;
8312;SDS011;4194;43.408;24.626;2022-11-15T08:49:57;24.53;;;16.87;;
8312;SDS011;4194;43.408;24.626;2022-11-15T08:52:23;28.90;;;18.20;;
8312;SDS011;4194;43.408;24.626;2022-11-15T08:54:49;23.03;;;17.03;;
8312;SDS011;4194;43.408;24.626;2022-11-15T08:57:15;26.33;;;16.77;;
8312;SDS011;4194;43.408;24.626;2022-11-15T08:59:41;27.30;;;16.73;;
8312;SDS011;4194;43.408;24.626;2022-11-15T09:02:10;27.37;;;17.73;;
8312;SDS011;4194;43.408;24.626;2022-11-15T09:04:39;116.80;;;99.23;;
8312;SDS011;4194;43.408;24.626;2022-11-15T09:07:08;41.30;;;33.67;;
8312;SDS011;4194;43.408;24.626;2022-11-15T09:09:35;33.63;;;22.03;;
8312;SDS011;4194;43.408;24.626;2022-11-15T09:12:00;26.60;;;16.60;;
8312;SDS011;4194;43.408;24.626;2022-11-15T09:14:26;23.43;;;14.93;;
8312;SDS011;4194;43.408;24.626;2022-11-15T09:16:51;23.50;;;16.03;;
8312;SDS011;4194;43.408;24.626;2022-11-15T09:19:17;25.47;;;17.13;;
8312;SDS011;4194;43.408;24.626;2022-11-15T09:21:43;32.27;;;18.47;;
8312;SDS011;4194;43.408;24.626;2022-11-15T09:24:08;28.50;;;18.17;;
8312;SDS011;4194;43.408;24.626;2022-11-15T09:26:34;30.03;;;20.00;;
8312;SDS011;4194;43.408;24.626;2022-11-15T09:29:00;26.63;;;17.60;;
8312;SDS011;4194;43.408;24.626;2022-11-15T09:31:27;25.10;;;15.97;;
8312;SDS011;4194;43.408;24.626;2022-11-15T09:33:52;26.73;;;17.63;;
8312;SDS011;4194;43.408;24.626;2022-11-15T09:36:18;21.70;;;15.00;;
8312;SDS011;4194;43.408;24.626;2022-11-15T09:38:44;21.77;;;15.10;;
8312;SDS011;4194;43.408;24.626;2022-11-15T09:43:54;20.98;;;15.80;;
8312;SDS011;4194;43.408;24.626;2022-11-15T09:46:46;20.07;;;14.37;;
8312;SDS011;4194;43.408;24.626;2022-11-15T09:49:16;16.27;;;12.03;;
8312;SDS011;4194;43.408;24.626;2022-11-15T09:51:44;16.00;;;10.27;;
8312;SDS011;4194;43.408;24.626;2022-11-15T09:56:44;11.77;;;8.43;;
8312;SDS011;4194;43.408;24.626;2022-11-15T10:02:25;11.47;;;8.33;;
8312;SDS011;4194;43.408;24.626;2022-11-15T10:04:39;11.57;;;8.47;;
8312;SDS011;4194;43.408;24.626;2022-11-15T10:07:10;13.20;;;8.30;;
8312;SDS011;4194;43.408;24.626;2022-11-15T10:12:28;12.70;;;7.93;;
8312;SDS011;4194;43.408;24.626;2022-11-15T10:15:05;10.27;;;7.53;;
8312;SDS011;4194;43.408;24.626;2022-11-15T10:20:29;11.47;;;9.20;;
8312;SDS011;4194;43.408;24.626;2022-11-15T10:23:01;11.60;;;9.33;;
8312;SDS011;4194;43.408;24.626;2022-11-15T10:25:32;13.60;;;9.40;;
8312;SDS011;4194;43.408;24.626;2022-11-15T10:28:01;15.83;;;10.20;;
8312;SDS011;4194;43.408;24.626;2022-11-15T10:30:34;11.73;;;8.60;;
8312;SDS011;4194;43.408;24.626;2022-11-15T10:34:06;9.00;;;7.60;;
8312;SDS011;4194;43.408;24.626;2022-11-15T10:36:21;9.53;;;7.63;;
8312;SDS011;4194;43.408;24.626;2022-11-15T10:41:13;8.80;;;7.30;;
8312;SDS011;4194;43.408;24.626;2022-11-15T10:43:41;7.53;;;6.17;;
8312;SDS011;4194;43.408;24.626;2022-11-15T10:46:20;11.57;;;7.67;;
8312;SDS011;4194;43.408;24.626;2022-11-15T10:48:48;9.17;;;6.60;;
8312;SDS011;4194;43.408;24.626;2022-11-15T10:51:27;8.77;;;6.73;;
8312;SDS011;4194;43.408;24.626;2022-11-15T10:53:54;12.17;;;7.10;;
8312;SDS011;4194;43.408;24.626;2022-11-15T10:56:22;10.87;;;8.00;;
8312;SDS011;4194;43.408;24.626;2022-11-15T10:58:51;9.87;;;8.30;;
8312;SDS011;4194;43.408;24.626;2022-11-15T11:01:20;11.63;;;9.77;;
8312;SDS011;4194;43.408;24.626;2022-11-15T11:06:51;10.13;;;7.33;;
8312;SDS011;4194;43.408;24.626;2022-11-15T11:12:04;11.43;;;7.43;;
8312;SDS011;4194;43.408;24.626;2022-11-15T11:14:35;7.13;;;6.17;;
8312;SDS011;4194;43.408;24.626;2022-11-15T11:17:13;7.40;;;6.60;;
8312;SDS011;4194;43.408;24.626;2022-11-15T11:34:29;9.87;;;7.13;;
8312;SDS011;4194;43.408;24.626;2022-11-15T11:42:41;9.27;;;7.80;;
8312;SDS011;4194;43.408;24.626;2022-11-15T11:47:40;9.33;;;7.03;;
8312;SDS011;4194;43.408;24.626;2022-11-15T11:50:18;10.47;;;8.50;;
8312;SDS011;4194;43.408;24.626;2022-11-15T11:53:04;12.00;;;9.90;;
8312;SDS011;4194;43.408;24.626;2022-11-15T11:55:56;11.47;;;8.87;;
8312;SDS011;4194;43.408;24.626;2022-11-15T12:03:40;13.63;;;10.37;;
8312;SDS011;4194;43.408;24.626;2022-11-15T12:06:33;16.17;;;9.17;;
8312;SDS011;4194;43.408;24.626;2022-11-15T12:11:50;13.23;;;9.83;;
8312;SDS011;4194;43.408;24.626;2022-11-15T12:16:56;15.40;;;11.00;;
8312;SDS011;4194;43.408;24.626;2022-11-15T12:19:23;13.43;;;9.93;;
8312;SDS011;4194;43.408;24.626;2022-11-15T12:24:24;15.43;;;10.80;;
8312;SDS011;4194;43.408;24.626;2022-11-15T12:27:00;12.17;;;9.97;;
8312;SDS011;4194;43.408;24.626;2022-11-15T12:29:37;12.57;;;9.43;;
8312;SDS011;4194;43.408;24.626;2022-11-15T12:35:03;13.63;;;10.17;;
8312;SDS011;4194;43.408;24.626;2022-11-15T12:37:34;14.47;;;10.00;;
8312;SDS011;4194;43.408;24.626;2022-11-15T12:43:07;14.63;;;10.23;;
8312;SDS011;4194;43.408;24.626;2022-11-15T12:46:08;13.00;;;9.90;;
8312;SDS011;4194;43.408;24.626;2022-11-15T12:51:03;10.57;;;8.47;;
8312;SDS011;4194;43.408;24.626;2022-11-15T12:53:34;13.17;;;9.43;;
8312;SDS011;4194;43.408;24.626;2022-11-15T12:58:52;16.07;;;11.47;;
8312;SDS011;4194;43.408;24.626;2022-11-15T13:12:03;14.13;;;10.10;;
8312;SDS011;4194;43.408;24.626;2022-11-15T13:14:46;13.03;;;10.80;;
8312;SDS011;4194;43.408;24.626;2022-11-15T13:29:02;13.77;;;10.23;;
8312;SDS011;4194;43.408;24.626;2022-11-15T13:33:55;16.53;;;12.20;;
8312;SDS011;4194;43.408;24.626;2022-11-15T13:36:25;17.43;;;11.20;;
8312;SDS011;4194;43.408;24.626;2022-11-15T13:39:02;16.90;;;12.10;;
8312;SDS011;4194;43.408;24.626;2022-11-15T13:41:31;18.90;;;13.33;;
8312;SDS011;4194;43.408;24.626;2022-11-15T13:43:58;17.37;;;12.57;;
8312;SDS011;4194;43.408;24.626;2022-11-15T13:46:26;14.63;;;11.40;;
8312;SDS011;4194;43.408;24.626;2022-11-15T13:48:57;12.87;;;10.43;;
8312;SDS011;4194;43.408;24.626;2022-11-15T13:51:33;17.30;;;10.73;;
8312;SDS011;4194;43.408;24.626;2022-11-15T13:56:28;16.57;;;11.37;;
8312;SDS011;4194;43.408;24.626;2022-11-15T13:58:55;16.53;;;11.67;;
8312;SDS011;4194;43.408;24.626;2022-11-15T14:01:24;17.20;;;11.63;;
8312;SDS011;4194;43.408;24.626;2022-11-15T14:03:56;23.83;;;13.00;;
8312;SDS011;4194;43.408;24.626;2022-11-15T14:06:25;14.60;;;10.83;;
8312;SDS011;4194;43.408;24.626;2022-11-15T14:11:28;15.37;;;11.30;;
8312;SDS011;4194;43.408;24.626;2022-11-15T14:24:37;19.63;;;13.93;;
8312;SDS011;4194;43.408;24.626;2022-11-15T14:27:17;29.87;;;21.53;;
8312;SDS011;4194;43.408;24.626;2022-11-15T14:29:48;32.03;;;22.40;;
8312;SDS011;4194;43.408;24.626;2022-11-15T14:32:18;28.40;;;18.43;;
8312;SDS011;4194;43.408;24.626;2022-11-15T14:34:49;25.07;;;18.33;;
8312;SDS011;4194;43.408;24.626;2022-11-15T14:37:29;38.87;;;22.67;;
8312;SDS011;4194;43.408;24.626;2022-11-15T14:40:00;58.30;;;34.17;;
8312;SDS011;4194;43.408;24.626;2022-11-15T14:42:27;43.57;;;27.07;;
8312;SDS011;4194;43.408;24.626;2022-11-15T14:44:53;36.00;;;24.67;;
8312;SDS011;4194;43.408;24.626;2022-11-15T14:47:19;32.20;;;21.00;;
8312;SDS011;4194;43.408;24.626;2022-11-15T14:49:45;21.00;;;15.10;;
8312;SDS011;4194;43.408;24.626;2022-11-15T14:52:27;25.43;;;16.13;;
8312;SDS011;4194;43.408;24.626;2022-11-15T14:54:55;29.87;;;16.53;;
8312;SDS011;4194;43.408;24.626;2022-11-15T14:57:22;24.50;;;18.43;;
8312;SDS011;4194;43.408;24.626;2022-11-15T14:59:49;26.90;;;17.70;;
8312;SDS011;4194;43.408;24.626;2022-11-15T15:02:19;26.63;;;18.00;;
8312;SDS011;4194;43.408;24.626;2022-11-15T15:04:47;26.73;;;19.03;;
8312;SDS011;4194;43.408;24.626;2022-11-15T15:07:14;25.80;;;17.70;;
8312;SDS011;4194;43.408;24.626;2022-11-15T15:09:40;22.20;;;17.23;;
8312;SDS011;4194;43.408;24.626;2022-11-15T15:12:16;25.87;;;19.77;;
8312;SDS011;4194;43.408;24.626;2022-11-15T15:14:44;26.83;;;19.27;;
8312;SDS011;4194;43.408;24.626;2022-11-15T15:17:11;29.43;;;18.53;;
8312;SDS011;4194;43.408;24.626;2022-11-15T15:19:37;26.50;;;18.20;;
8312;SDS011;4194;43.408;24.626;2022-11-15T15:22:03;23.73;;;18.27;;
8312;SDS011;4194;43.408;24.626;2022-11-15T15:24:30;28.87;;;23.23;;
8312;SDS011;4194;43.408;24.626;2022-11-15T15:26:56;32.03;;;22.43;;
8312;SDS011;4194;43.408;24.626;2022-11-15T15:29:21;27.00;;;18.00;;
8312;SDS011;4194;43.408;24.626;2022-11-15T15:31:47;25.37;;;18.33;;
8312;SDS011;4194;43.408;24.626;2022-11-15T15:34:13;22.67;;;16.47;;
8312;SDS011;4194;43.408;24.626;2022-11-15T15:36:38;25.63;;;18.83;;
8312;SDS011;4194;43.408;24.626;2022-11-15T15:39:04;24.47;;;18.63;;
8312;SDS011;4194;43.408;24.626;2022-11-15T15:41:33;24.60;;;17.50;;
8312;SDS011;4194;43.408;24.626;2022-11-15T15:43:58;25.17;;;18.00;;
8312;SDS011;4194;43.408;24.626;2022-11-15T15:46:24;28.93;;;18.33;;
8312;SDS011;4194;43.408;24.626;2022-11-15T15:48:50;24.07;;;15.33;;
8312;SDS011;4194;43.408;24.626;2022-11-15T15:51:15;24.50;;;18.07;;
8312;SDS011;4194;43.408;24.626;2022-11-15T15:53:41;23.97;;;17.17;;
8312;SDS011;4194;43.408;24.626;2022-11-15T15:56:07;20.43;;;15.80;;
8312;SDS011;4194;43.408;24.626;2022-11-15T15:58:34;18.07;;;12.83;;
8312;SDS011;4194;43.408;24.626;2022-11-15T16:01:00;21.08;;;15.82;;
8312;SDS011;4194;43.408;24.626;2022-11-15T16:03:26;17.03;;;14.10;;
8312;SDS011;4194;43.408;24.626;2022-11-15T16:05:52;19.40;;;13.33;;
8312;SDS011;4194;43.408;24.626;2022-11-15T16:08:19;20.73;;;15.20;;
8312;SDS011;4194;43.408;24.626;2022-11-15T16:10:47;47.90;;;31.87;;
8312;SDS011;4194;43.408;24.626;2022-11-15T16:13:13;44.67;;;32.63;;
8312;SDS011;4194;43.408;24.626;2022-11-15T16:15:39;36.03;;;24.40;;
8312;SDS011;4194;43.408;24.626;2022-11-15T16:18:05;27.47;;;19.40;;
8312;SDS011;4194;43.408;24.626;2022-11-15T16:20:41;18.87;;;15.20;;
8312;SDS011;4194;43.408;24.626;2022-11-15T16:23:12;26.40;;;15.87;;
8312;SDS011;4194;43.408;24.626;2022-11-15T16:25:46;27.60;;;15.90;;
8312;SDS011;4194;43.408;24.626;2022-11-15T16:28:30;23.00;;;15.20;;
8312;SDS011;4194;43.408;24.626;2022-11-15T16:33:29;30.13;;;20.33;;
8312;SDS011;4194;43.408;24.626;2022-11-15T16:35:55;29.60;;;19.47;;
8312;SDS011;4194;43.408;24.626;2022-11-15T16:38:21;24.00;;;17.20;;
8312;SDS011;4194;43.408;24.626;2022-11-15T16:40:47;20.43;;;14.57;;
8312;SDS011;4194;43.408;24.626;2022-11-15T16:43:12;22.60;;;15.23;;
8312;SDS011;4194;43.408;24.626;2022-11-15T16:45:38;21.27;;;15.57;;
8312;SDS011;4194;43.408;24.626;2022-11-15T16:48:04;20.77;;;15.60;;
8312;SDS011;4194;43.408;24.626;2022-11-15T16:50:31;21.47;;;16.10;;
8312;SDS011;4194;43.408;24.626;2022-11-15T16:53:07;30.37;;;21.20;;
8312;SDS011;4194;43.408;24.626;2022-11-15T16:55:33;30.80;;;20.50;;
8312;SDS011;4194;43.408;24.626;2022-11-15T16:57:58;31.27;;;21.57;;
8312;SDS011;4194;43.408;24.626;2022-11-15T17:00:25;31.83;;;21.93;;
8312;SDS011;4194;43.408;24.626;2022-11-15T17:02:51;23.60;;;17.33;;
8312;SDS011;4194;43.408;24.626;2022-11-15T17:05:19;25.43;;;18.53;;
8312;SDS011;4194;43.408;24.626;2022-11-15T17:07:46;25.33;;;17.33;;
8312;SDS011;4194;43.408;24.626;2022-11-15T17:10:14;21.10;;;15.23;;
8312;SDS011;4194;43.408;24.626;2022-11-15T17:12:40;20.83;;;15.13;;
8312;SDS011;4194;43.408;24.626;2022-11-15T17:15:06;24.77;;;18.57;;
8312;SDS011;4194;43.408;24.626;2022-11-15T17:17:32;29.37;;;19.47;;
8312;SDS011;4194;43.408;24.626;2022-11-15T17:19:58;36.27;;;23.57;;
8312;SDS011;4194;43.408;24.626;2022-11-15T17:22:24;30.00;;;20.37;;
8312;SDS011;4194;43.408;24.626;2022-11-15T17:24:49;28.97;;;19.73;;
8312;SDS011;4194;43.408;24.626;2022-11-15T17:27:15;30.20;;;19.20;;